Terminal Aerodrome Forecast
Issued by NWS

Home | Current Version | Previous Version | Text Only | Print | Product List | Glossary On
Versions: 1 2 3 4 5 6 7 8 9 10 11 12 13 14 15 16 17
919
FTUS41 KBTV 231124
TAFRUT
TAF
KRUT 231124Z 2312/2412 16008KT P6SM FEW120
     FM231800 15012G19KT P6SM -RA OVC035
     FM240000 15008KT 4SM -RA BR OVC010
     FM240200 19007KT P6SM VCSH OVC010
     FM240700 25006KT P6SM BKN020
     FM241000 28007KT P6SM BKN035=

USA.gov is the U.S. government's official web portal to all federal, state and local government web resources and services.